createdAt,value
2017-04-29T00:03:03.129Z,0
2017-04-29T00:13:14.442Z,0
2017-04-29T00:23:25.735Z,0
2017-04-29T00:33:36.997Z,0
2017-04-29T00:43:48.352Z,0
2017-04-29T00:53:59.773Z,0
2017-04-29T01:04:11.227Z,0
2017-04-29T01:14:22.664Z,0
2017-04-29T01:24:34.107Z,0
2017-04-29T01:34:45.583Z,0
2017-04-29T01:44:57.110Z,0
2017-04-29T01:55:08.471Z,0
2017-04-29T02:05:19.859Z,0
2017-04-29T02:15:31.348Z,0
2017-04-29T02:25:42.794Z,0
2017-04-29T02:35:54.252Z,0
2017-04-29T02:46:05.717Z,0
2017-04-29T02:56:17.147Z,0
2017-04-29T03:06:28.585Z,0
2017-04-29T03:16:40.083Z,0
2017-04-29T03:26:51.587Z,0
2017-04-29T03:37:03.104Z,0
2017-04-29T03:47:14.665Z,0
2017-04-29T03:57:26.324Z,5
2017-04-29T04:07:37.909Z,10
2017-04-29T04:17:49.456Z,25
2017-04-29T04:28:01.025Z,35
2017-04-29T04:38:12.613Z,50
2017-04-29T04:48:24.049Z,75
2017-04-29T04:58:35.390Z,95
2017-04-29T05:08:46.734Z,125
2017-04-29T05:18:58.066Z,145
2017-04-29T05:29:09.394Z,175
2017-04-29T05:39:20.547Z,225
2017-04-29T05:49:31.620Z,310
2017-04-29T05:59:42.587Z,345
2017-04-29T06:09:53.450Z,420
2017-04-29T06:20:04.236Z,530
2017-04-29T06:30:14.891Z,505
2017-04-29T06:40:25.505Z,540
2017-04-29T06:50:36.046Z,620
2017-04-29T07:00:46.506Z,740
2017-04-29T07:10:56.846Z,1595
2017-04-29T07:21:06.793Z,1375
2017-04-29T07:31:16.345Z,840
2017-04-29T07:41:25.990Z,730
2017-04-29T07:51:35.806Z,1045
2017-04-29T08:01:45.669Z,1215
2017-04-29T08:11:55.470Z,905
2017-04-29T08:22:05.217Z,965
2017-04-29T08:32:14.921Z,645
2017-04-29T08:42:24.733Z,985
2017-04-29T08:52:34.597Z,1020
2017-04-29T09:02:44.435Z,760
2017-04-29T09:12:54.366Z,1035
2017-04-29T09:23:04.373Z,1755
2017-04-29T09:33:14.274Z,3360
2017-04-29T09:43:23.734Z,3425
2017-04-29T09:53:32.653Z,3940
2017-04-29T10:03:41.460Z,540
2017-04-29T10:13:50.535Z,1025
2017-04-29T10:23:59.948Z,1245
2017-04-29T10:34:09.326Z,3750
2017-04-29T10:44:18.211Z,1240
2017-04-29T10:54:27.041Z,1125
2017-04-29T11:04:36.120Z,840
2017-04-29T11:14:45.293Z,720
2017-04-29T11:24:54.581Z,1220
2017-04-29T11:35:03.971Z,4315
2017-04-29T11:45:13.011Z,930
2017-04-29T11:55:22.063Z,965
2017-04-29T12:05:31.360Z,3825
2017-04-29T12:15:40.581Z,1170
2017-04-29T12:25:49.776Z,1140
2017-04-29T12:35:58.963Z,2780
2017-04-29T12:46:07.960Z,935
2017-04-29T12:56:17.034Z,790
2017-04-29T13:06:26.304Z,1005
2017-04-29T13:16:35.603Z,1185
2017-04-29T13:26:44.878Z,1520
2017-04-29T13:36:54.060Z,3545
2017-04-29T13:47:02.855Z,1005
2017-04-29T13:57:11.760Z,2690
2017-04-29T14:07:20.653Z,1100
2017-04-29T14:17:29.470Z,1635
2017-04-29T14:27:37.989Z,1355
2017-04-29T14:37:46.472Z,850
2017-04-29T14:47:55.323Z,835
2017-04-29T14:58:04.389Z,955
2017-04-29T15:08:13.459Z,900
2017-04-29T15:18:22.646Z,980
2017-04-29T15:28:31.742Z,595
2017-04-29T15:38:41.087Z,1105
2017-04-29T15:48:50.116Z,1400
2017-04-29T15:58:59.090Z,415
2017-04-29T16:09:08.476Z,385
2017-04-29T16:19:18.074Z,385
2017-04-29T16:29:27.812Z,370
2017-04-29T16:39:37.377Z,375
2017-04-29T16:49:46.883Z,480
2017-04-29T16:59:56.147Z,455
2017-04-29T17:10:05.408Z,490
2017-04-29T17:20:14.268Z,465
2017-04-29T17:30:23.400Z,425
2017-04-29T17:40:32.366Z,335
2017-04-29T17:50:41.649Z,255
2017-04-29T18:00:51.174Z,200
2017-04-29T18:11:00.869Z,155
2017-04-29T18:21:10.703Z,105
2017-04-29T18:31:20.698Z,70
2017-04-29T18:41:30.896Z,35
2017-04-29T18:51:41.254Z,15
2017-04-29T19:01:51.774Z,5
2017-04-29T19:12:02.237Z,0
2017-04-29T19:22:12.855Z,0
2017-04-29T19:32:23.500Z,0
2017-04-29T19:42:34.206Z,0
2017-04-29T19:52:44.973Z,0
2017-04-29T20:02:55.737Z,0
2017-04-29T20:13:06.557Z,0
2017-04-29T20:23:17.365Z,0
2017-04-29T20:33:28.206Z,0
2017-04-29T20:43:39.076Z,0
2017-04-29T20:53:49.949Z,0
2017-04-29T21:04:00.882Z,0
2017-04-29T21:14:11.833Z,0
2017-04-29T21:24:22.831Z,0
2017-04-29T21:34:33.853Z,0
2017-04-29T21:44:44.834Z,0
2017-04-29T21:54:55.823Z,0
2017-04-29T22:05:06.811Z,0
2017-04-29T22:15:17.860Z,0
2017-04-29T22:25:28.943Z,0
2017-04-29T22:35:40.035Z,0
2017-04-29T22:45:51.228Z,0
2017-04-29T22:56:02.445Z,0
2017-04-29T23:06:13.685Z,0
2017-04-29T23:16:24.912Z,0
2017-04-29T23:26:36.210Z,0
2017-04-29T23:36:47.438Z,0
2017-04-29T23:46:58.735Z,0
2017-04-29T23:57:10.040Z,0
